Главная страница
METAR-TAF:

METAR-TAF

Аэропорты :

Сиирт, Турция

широта: 37-58-41N, долгота: 41-50-21E, высота над уровнем моря: 610 м

Текущие метеонаблюдения

Эта сводка был подготовлена 14 часа и 17 минут назад, в 12:50 UTC
Ветер 6 Узел от юго-западный
Температура 24°C
Влажность 36%
Давление 1010 hPa
Видимость 10 км и более
небольшая облачность на высоте 4000 фута
Отдельные облака на высоте 10000 фута

METAR: LTCL 141250Z 22006KT 9999 FEW040 SCT100 24/08 Q1010

Время: 06:07 (03:07 UTC)

Прогноз

Эта сводка был подготовлена 1 час и 27 минут назад, в 01:40 UTC
Прогноз действительный с 15-го 03 UTC до 15-го 12 UTC
Ветер 2 Узел переменных направлений
Видимость 10 км и более
небольшая облачность на высоте 4000 фута
Рассеянная облачность на высоте 10000 фута

TAF: LTCL 150140Z 1503/1512 VRB02KT 9999 FEW040 BKN100

Метеонаблюдения и прогнозы для более 4000 аэропортов (сводки METAR и TAF).

Имеющиеся станции представлены на карте желтыми и красными точками.

Чтобы увидеть название станции, наведите на нее мышь.

Затем щелкните, чтобы увидеть метеонаблюдения и метеопрогнозы.

Управление картой: чтобы увеличить масштаб, щелкните зеленые кнопки с черным крестиком; чтобы уменьшить масштаб, щелкните зеленую кнопку с тире; для просмотра соседних карт щелкайте зеленые стрелки.


METAR-TAF: